Time;durP1;ratioP1;P1;durP2;ratioP2;P2;SDS_P1;SDS_P2;PMS_P1;PMS_P2;Temp;Humidity;BMP_temperature;BMP_pressure;BME280_temperature;BME280_humidity;BME280_pressure;Samples;Min_cycle;Max_cycle;Signal;HPM_P1;HPM_P2
2021/11/15 00:01:15;;;;;;;74.68;39.78;;;;;;;6.56;100.00;101049.72;5095229;28;20036;-77
2021/11/15 00:03:45;;;;;;;71.57;39.25;;;;;;;6.62;100.00;101053.94;5094932;28;20040;-77
2021/11/15 00:06:15;;;;;;;72.22;39.35;;;;;;;6.64;100.00;101059.19;5095185;28;20123;-76
2021/11/15 00:08:43;;;;;;;74.90;38.85;;;;;;;6.69;100.00;101060.78;5094705;28;20378;-76
2021/11/15 00:11:11;;;;;;;73.38;38.60;;;;;;;6.69;100.00;101063.44;5094915;28;20040;-76
2021/11/15 00:13:40;;;;;;;76.10;38.75;;;;;;;6.73;100.00;101065.06;5094669;28;20048;-76
2021/11/15 00:16:08;;;;;;;72.25;38.50;;;;;;;6.75;100.00;101071.19;5094966;28;20044;-76
2021/11/15 00:18:38;;;;;;;69.20;37.25;;;;;;;6.81;100.00;101075.44;5094586;28;20040;-76
2021/11/15 00:21:07;;;;;;;75.07;37.72;;;;;;;6.79;100.00;101080.81;5094997;28;20064;-77
2021/11/15 00:23:36;;;;;;;69.80;37.40;;;;;;;6.94;100.00;101079.44;5094721;28;20044;-76
2021/11/15 00:26:05;;;;;;;69.07;36.97;;;;;;;6.95;100.00;101075.00;5094831;28;20068;-76
2021/11/15 00:28:33;;;;;;;68.85;38.28;;;;;;;6.89;100.00;101076.06;5094292;28;20040;-76
2021/11/15 00:31:01;;;;;;;69.53;37.95;;;;;;;6.86;100.00;101079.69;5094788;28;20389;-76
2021/11/15 00:33:30;;;;;;;68.25;36.92;;;;;;;7.01;100.00;101085.41;5094246;28;20115;-76
2021/11/15 00:35:59;;;;;;;68.80;37.55;;;;;;;7.16;100.00;101076.97;5094225;28;20067;-76
2021/11/15 00:38:28;;;;;;;70.65;36.63;;;;;;;7.09;100.00;101080.75;5093862;28;20123;-76
2021/11/15 00:40:57;;;;;;;66.38;34.60;;;;;;;7.22;100.00;101076.75;5094436;28;20040;-75
2021/11/15 00:43:25;;;;;;;64.60;34.72;;;;;;;7.14;100.00;101084.09;5093152;28;20056;-76
2021/11/15 00:45:54;;;;;;;65.78;34.58;;;;;;;7.08;100.00;101076.34;5094031;28;20056;-76
2021/11/15 00:48:22;;;;;;;63.42;35.00;;;;;;;7.21;100.00;101082.97;5093353;28;20048;-76
2021/11/15 00:50:51;;;;;;;67.72;36.50;;;;;;;7.13;100.00;101082.34;5094233;28;20389;-75
2021/11/15 00:53:19;;;;;;;70.72;36.50;;;;;;;7.31;100.00;101086.19;5093766;28;20070;-78
2021/11/15 00:55:48;;;;;;;64.07;34.42;;;;;;;7.32;100.00;101083.47;5093925;28;20481;-77
2021/11/15 00:58:17;;;;;;;63.33;35.90;;;;;;;7.30;100.00;101090.63;5094206;28;20056;-75
2021/11/15 01:00:46;;;;;;;63.83;34.38;;;;;;;7.25;100.00;101097.91;5093903;28;20101;-75
2021/11/15 01:03:15;;;;;;;67.35;34.65;;;;;;;7.21;100.00;101096.25;5093705;28;20378;-74
2021/11/15 01:05:47;;;;;;;68.53;36.80;;;;;;;7.21;100.00;101085.63;5093271;28;20044;-74
2021/11/15 01:08:17;;;;;;;64.82;34.40;;;;;;;7.30;100.00;101090.63;5094129;28;20040;-74
2021/11/15 01:10:47;;;;;;;60.35;34.05;;;;;;;7.29;100.00;101088.91;5092654;28;20046;-74
2021/11/15 01:13:19;;;;;;;68.75;34.97;;;;;;;7.29;100.00;101088.91;5094086;28;20040;-75
2021/11/15 01:15:48;;;;;;;65.07;34.20;;;;;;;7.23;100.00;101083.78;5093196;28;20160;-75
2021/11/15 01:18:17;;;;;;;68.63;34.40;;;;;;;7.34;100.00;101081.66;5093629;28;20093;-75
2021/11/15 01:20:49;;;;;;;69.30;34.58;;;;;;;7.21;100.00;101085.63;5093163;28;20144;-76
2021/11/15 01:23:18;;;;;;;64.20;34.75;;;;;;;7.18;100.00;101077.78;5093893;28;20039;-75
2021/11/15 01:25:46;;;;;;;66.47;34.78;;;;;;;7.16;100.00;101084.94;5093600;28;20372;-76
2021/11/15 01:28:15;;;;;;;68.57;34.33;;;;;;;7.27;100.00;101074.81;5093714;28;20048;-76
2021/11/15 01:30:45;;;;;;;65.35;34.13;;;;;;;7.14;100.00;101070.81;5093279;28;20044;-75
2021/11/15 01:33:13;;;;;;;64.07;33.80;;;;;;;7.19;100.00;101074.22;5093377;28;20075;-75
2021/11/15 01:35:41;;;;;;;66.68;35.67;;;;;;;7.32;100.00;101078.19;5093109;28;20078;-75
2021/11/15 01:38:10;;;;;;;61.25;31.70;;;;;;;7.45;100.00;101076.88;5093139;28;20052;-75
2021/11/15 01:40:38;;;;;;;62.15;32.85;;;;;;;7.27;100.00;101074.81;5092737;28;20048;-75
2021/11/15 01:43:07;;;;;;;63.65;33.70;;;;;;;7.16;100.00;101076.97;5093470;28;20465;-76
2021/11/15 01:45:39;;;;;;;68.07;34.25;;;;;;;7.13;100.00;101062.00;5093138;28;20141;-79
2021/11/15 01:48:12;;;;;;;64.07;33.20;;;;;;;7.18;100.00;101070.69;5093209;28;20093;-79
2021/11/15 01:50:42;;;;;;;64.05;34.28;;;;;;;7.25;100.00;101060.75;5093204;28;20049;-79
2021/11/15 01:53:11;;;;;;;63.17;33.47;;;;;;;7.34;100.00;101065.75;5092729;28;20486;-80
2021/11/15 01:55:42;;;;;;;61.92;33.03;;;;;;;7.38;100.00;101062.06;5093090;28;20064;-79
2021/11/15 01:58:12;;;;;;;57.53;30.98;;;;;;;7.51;100.00;101058.97;5093474;28;20044;-79
2021/11/15 02:00:49;;;;;;;58.63;31.73;;;;;;;7.43;100.00;101049.50;5096557;28;20449;-79
2021/11/15 02:03:21;;;;;;;61.90;32.60;;;;;;;7.42;100.00;101053.06;5099774;28;20040;-77
2021/11/15 02:05:50;;;;;;;65.18;32.20;;;;;;;7.42;100.00;101045.09;5099605;28;20052;-76
2021/11/15 02:08:18;;;;;;;61.15;32.92;;;;;;;7.40;100.00;101048.72;5099662;28;20114;-75
2021/11/15 02:10:47;;;;;;;61.22;33.10;;;;;;;7.37;100.00;101049.72;5099203;28;20044;-75
2021/11/15 02:13:17;;;;;;;65.50;32.97;;;;;;;7.21;100.00;101045.81;5099549;28;20481;-77
2021/11/15 02:15:46;;;;;;;60.10;32.75;;;;;;;7.09;100.00;101038.28;5099456;28;20105;-77
2021/11/15 02:18:15;;;;;;;57.72;33.72;;;;;;;7.25;100.00;101050.13;5099829;28;20036;-77
2021/11/15 02:20:49;;;;;;;65.80;32.67;;;;;;;7.24;100.00;101040.44;5099163;28;20064;-78
2021/11/15 02:23:18;;;;;;;64.32;33.75;;;;;;;7.28;100.00;101043.84;5099971;28;20105;-78
2021/11/15 02:25:49;;;;;;;62.78;33.90;;;;;;;7.25;100.00;101043.97;5099429;28;20393;-78
2021/11/15 02:28:17;;;;;;;71.30;35.10;;;;;;;7.11;100.00;101041.75;5099893;28;20036;-78
2021/11/15 02:30:46;;;;;;;66.43;34.33;;;;;;;7.13;100.00;101045.22;5099275;28;20040;-78
2021/11/15 02:33:14;;;;;;;65.95;34.88;;;;;;;7.27;100.00;101036.81;5099659;28;20043;-77
2021/11/15 02:35:42;;;;;;;62.17;33.60;;;;;;;7.21;100.00;101043.19;5099317;28;20040;-78
2021/11/15 02:38:12;;;;;;;64.75;34.00;;;;;;;7.11;100.00;101047.06;5099842;28;20050;-78
2021/11/15 02:40:40;;;;;;;63.08;33.35;;;;;;;7.12;100.00;101049.66;5099311;28;20051;-78
2021/11/15 02:43:09;;;;;;;65.68;34.20;;;;;;;7.00;100.00;101035.94;5099641;28;20396;-77
2021/11/15 02:45:37;;;;;;;65.20;34.33;;;;;;;6.99;100.00;101037.72;5099264;28;20040;-78
2021/11/15 02:48:06;;;;;;;68.78;34.30;;;;;;;7.07;100.00;101034.81;5099646;28;20494;-77
2021/11/15 02:50:35;;;;;;;63.20;33.90;;;;;;;7.06;100.00;101043.72;5098799;28;20043;-78
2021/11/15 02:53:05;;;;;;;64.53;35.30;;;;;;;6.93;100.00;101045.00;5099388;28;20036;-76
2021/11/15 02:55:36;;;;;;;62.63;32.90;;;;;;;7.02;100.00;101047.34;5098939;28;20044;-78
2021/11/15 02:58:09;;;;;;;66.88;34.13;;;;;;;7.13;100.00;101053.16;5099615;28;20042;-76
2021/11/15 03:00:42;;;;;;;68.50;34.88;;;;;;;7.07;100.00;101045.44;5099205;28;20047;-76
2021/11/15 03:03:12;;;;;;;62.63;33.17;;;;;;;7.06;100.00;101049.88;5099480;28;20542;-76
2021/11/15 03:05:42;;;;;;;66.13;34.80;;;;;;;6.96;100.00;101059.06;5098883;28;20127;-76
2021/11/15 03:08:11;;;;;;;62.65;34.25;;;;;;;6.92;100.00;101052.09;5099605;28;20081;-78
2021/11/15 03:10:43;;;;;;;62.58;32.40;;;;;;;7.04;100.00;101050.81;5098839;28;20491;-79
2021/11/15 03:13:13;;;;;;;60.20;32.72;;;;;;;7.08;100.00;101057.78;5095969;28;20055;-78
2021/11/15 03:15:43;;;;;;;63.50;33.28;;;;;;;7.12;100.00;101064.72;5095922;28;20046;-79
2021/11/15 03:18:14;;;;;;;62.97;33.50;;;;;;;7.12;100.00;101059.41;5095952;28;20146;-79
2021/11/15 03:20:44;;;;;;;65.65;33.53;;;;;;;7.13;100.00;101067.31;5096118;28;20052;-79
2021/11/15 03:23:15;;;;;;;60.88;31.85;;;;;;;7.09;100.00;101064.81;5096247;28;20047;-79
2021/11/15 03:25:46;;;;;;;64.25;35.80;;;;;;;7.02;100.00;101057.97;5095844;28;20122;-79
2021/11/15 03:28:18;;;;;;;63.05;32.97;;;;;;;6.99;100.00;101066.03;5096114;28;20370;-79
2021/11/15 03:30:49;;;;;;;63.60;34.15;;;;;;;6.99;100.00;101069.56;5095357;28;20499;-78
2021/11/15 03:33:18;;;;;;;61.97;34.00;;;;;;;7.03;100.00;101070.31;5095966;28;20036;-78
2021/11/15 03:35:46;;;;;;;69.07;34.90;;;;;;;6.98;100.00;101067.81;5095447;28;20047;-77
2021/11/15 03:38:15;;;;;;;62.33;33.38;;;;;;;6.98;100.00;101077.56;5095855;28;20040;-78
2021/11/15 03:40:45;;;;;;;66.05;33.25;;;;;;;6.98;100.00;101077.56;5095236;28;20048;-76
2021/11/15 03:43:13;;;;;;;60.60;33.20;;;;;;;6.92;100.00;101078.63;5095365;28;20079;-76
2021/11/15 03:45:42;;;;;;;64.32;33.53;;;;;;;6.97;100.00;101081.16;5095272;28;20044;-77
2021/11/15 03:48:11;;;;;;;61.15;33.17;;;;;;;7.14;100.00;101079.69;5095070;28;20054;-77
2021/11/15 03:50:41;;;;;;;65.35;34.33;;;;;;;6.98;100.00;101069.63;5095173;28;20458;-76
2021/11/15 03:53:13;;;;;;;65.68;34.55;;;;;;;6.98;100.00;101072.25;5094742;28;20489;-77
2021/11/15 03:55:41;;;;;;;60.25;32.15;;;;;;;6.99;100.00;101074.00;5095182;28;20036;-77
2021/11/15 03:58:11;;;;;;;60.08;32.97;;;;;;;7.00;100.00;101068.63;5094392;28;20071;-77
2021/11/15 04:00:41;;;;;;;65.65;34.97;;;;;;;6.96;100.00;101079.41;5093628;28;20465;-77
2021/11/15 04:03:16;;;;;;;64.65;33.53;;;;;;;7.09;100.00;101080.75;5095346;28;20127;-76
2021/11/15 04:05:50;;;;;;;62.85;32.72;;;;;;;7.03;100.00;101072.97;5094954;28;20453;-75
2021/11/15 04:08:19;;;;;;;64.63;33.55;;;;;;;7.05;100.00;101073.81;5095344;28;20122;-75
2021/11/15 04:10:48;;;;;;;59.45;32.90;;;;;;;6.98;100.00;101072.25;5094595;28;20044;-74
2021/11/15 04:13:20;;;;;;;66.75;34.20;;;;;;;6.96;100.00;101082.94;5095069;28;20044;-74
2021/11/15 04:15:50;;;;;;;66.15;34.78;;;;;;;6.97;100.00;101076.69;5094663;28;20040;-74
2021/11/15 04:18:21;;;;;;;61.50;33.30;;;;;;;7.15;100.00;101077.91;5094677;28;20044;-73
2021/11/15 04:20:55;;;;;;;69.60;35.05;;;;;;;7.02;100.00;101069.44;5094896;28;20389;-74
2021/11/15 04:23:23;;;;;;;60.90;34.10;;;;;;;7.06;100.00;101080.84;5094037;28;20156;-76
2021/11/15 04:25:51;;;;;;;65.93;34.13;;;;;;;7.02;100.00;101073.88;5094279;28;20065;-76
2021/11/15 04:28:21;;;;;;;65.32;34.65;;;;;;;6.87;100.00;101086.75;5094386;28;20382;-76
2021/11/15 04:30:50;;;;;;;65.90;36.03;;;;;;;6.90;100.00;101077.81;5094494;28;20080;-76
2021/11/15 04:33:18;;;;;;;60.85;33.28;;;;;;;6.89;100.00;101087.56;5094624;28;20044;-76
2021/11/15 04:35:47;;;;;;;64.50;33.90;;;;;;;6.86;100.00;101081.50;5094350;28;20040;-76
2021/11/15 04:38:15;;;;;;;68.57;35.78;;;;;;;6.98;100.00;101085.53;5094614;28;20054;-76
2021/11/15 04:40:44;;;;;;;60.85;33.10;;;;;;;6.93;100.00;101079.50;5093825;28;20040;-76
2021/11/15 04:43:12;;;;;;;62.05;33.10;;;;;;;6.92;100.00;101085.72;5094097;28;20044;-76
2021/11/15 04:45:42;;;;;;;60.72;33.08;;;;;;;6.99;100.00;101081.94;5094213;28;20044;-80
2021/11/15 04:48:10;;;;;;;64.35;33.95;;;;;;;6.87;100.00;101084.09;5094601;28;20394;-76
2021/11/15 04:50:39;;;;;;;60.95;32.17;;;;;;;6.99;100.00;101084.59;5093974;28;20447;-76
2021/11/15 04:53:08;;;;;;;59.83;33.92;;;;;;;6.93;100.00;101084.78;5093598;28;20040;-78
2021/11/15 04:55:38;;;;;;;59.30;30.83;;;;;;;6.95;100.00;101085.59;5094002;28;20040;-78
2021/11/15 04:58:06;;;;;;;56.22;30.83;;;;;;;7.10;100.00;101083.34;5093666;28;20412;-78
2021/11/15 05:00:36;;;;;;;60.00;32.28;;;;;;;6.83;100.00;101092.16;5093950;28;20396;-78
2021/11/15 05:03:06;;;;;;;61.92;32.90;;;;;;;6.88;100.00;101096.44;5093496;28;20040;-78
2021/11/15 05:05:35;;;;;;;59.08;30.75;;;;;;;6.87;100.00;101093.81;5094068;28;20055;-78
2021/11/15 05:08:03;;;;;;;64.15;32.58;;;;;;;6.78;100.00;101099.41;5093743;28;20058;-78
2021/11/15 05:10:32;;;;;;;56.08;29.10;;;;;;;6.79;100.00;101099.38;5093535;28;20046;-79
2021/11/15 05:13:02;;;;;;;54.08;28.05;;;;;;;6.74;100.00;101095.09;5093311;28;20073;-78
2021/11/15 05:15:30;;;;;;;55.22;29.48;;;;;;;6.84;100.00;101094.75;5094213;28;20044;-74
2021/11/15 05:17:59;;;;;;;55.17;28.92;;;;;;;6.83;100.00;101090.38;5093433;28;20036;-74
2021/11/15 05:20:29;;;;;;;54.53;28.77;;;;;;;6.80;100.00;101090.50;5093756;28;20036;-74
2021/11/15 05:22:57;;;;;;;53.80;28.48;;;;;;;6.81;100.00;101092.22;5093263;28;20069;-75
2021/11/15 05:25:26;;;;;;;59.33;29.35;;;;;;;6.85;100.00;101093.88;5093271;28;20055;-77
2021/11/15 05:27:54;;;;;;;54.85;29.23;;;;;;;6.80;100.00;101101.09;5093344;28;20097;-77
2021/11/15 05:30:24;;;;;;;56.05;28.25;;;;;;;6.85;100.00;101103.59;5093115;28;20093;-77
2021/11/15 05:32:55;;;;;;;58.15;28.27;;;;;;;6.84;100.00;101107.16;5092953;28;20182;-77
2021/11/15 05:35:24;;;;;;;57.95;30.77;;;;;;;6.79;100.00;101103.81;5092796;28;20073;-75
2021/11/15 05:37:57;;;;;;;54.83;28.83;;;;;;;6.77;100.00;101110.94;5093276;28;20043;-75
2021/11/15 05:40:26;;;;;;;60.17;31.03;;;;;;;6.66;100.00;101113.94;5093555;28;20123;-75
2021/11/15 05:42:55;;;;;;;56.45;30.58;;;;;;;6.53;100.00;101118.72;5093057;28;20485;-75
2021/11/15 05:45:25;;;;;;;57.50;31.42;;;;;;;6.49;100.00;101111.78;5093065;28;20044;-77
2021/11/15 05:47:54;;;;;;;54.67;29.05;;;;;;;6.62;100.00;101120.22;5092721;28;20556;-78
2021/11/15 05:50:24;;;;;;;55.25;29.63;;;;;;;6.56;100.00;101118.63;5092944;28;20131;-74
2021/11/15 05:52:54;;;;;;;56.92;30.27;;;;;;;6.42;100.00;101119.94;5092455;28;20043;-75
2021/11/15 05:55:24;;;;;;;53.17;29.10;;;;;;;6.36;100.00;101120.97;5093354;28;20052;-76
2021/11/15 05:57:53;;;;;;;56.50;30.05;;;;;;;6.31;100.00;101125.56;5093007;28;20138;-75
2021/11/15 06:00:24;;;;;;;57.53;31.00;;;;;;;6.23;100.00;101125.78;5092989;28;20461;-75
2021/11/15 06:02:52;;;;;;;58.78;31.63;;;;;;;6.20;100.00;101141.75;5092627;28;20382;-76
2021/11/15 06:05:22;;;;;;;63.00;32.40;;;;;;;6.16;100.00;101133.94;5092965;28;20048;-75
2021/11/15 06:07:51;;;;;;;66.72;32.85;;;;;;;6.06;100.00;101143.03;5092653;28;20119;-76
2021/11/15 06:10:21;;;;;;;61.78;33.78;;;;;;;6.16;100.00;101149.81;5092968;28;20047;-75
2021/11/15 06:12:49;;;;;;;67.63;32.58;;;;;;;6.10;100.00;101150.00;5092303;28;20086;-75
2021/11/15 06:15:20;;;;;;;60.72;31.33;;;;;;;6.17;100.00;101148.91;5092612;28;20493;-75
2021/11/15 06:17:48;;;;;;;58.67;30.83;;;;;;;6.19;100.00;101153.28;5091972;28;20051;-78
2021/11/15 06:20:17;;;;;;;58.53;30.45;;;;;;;6.18;100.00;101164.78;5092559;28;20071;-76
2021/11/15 06:22:46;;;;;;;67.18;34.15;;;;;;;6.20;100.00;101162.97;5092874;28;20048;-75
2021/11/15 06:25:17;;;;;;;60.42;31.38;;;;;;;6.17;100.00;101168.31;5092986;28;20058;-75
2021/11/15 06:27:47;;;;;;;64.88;32.58;;;;;;;6.35;100.00;101174.03;5092770;28;20055;-75
2021/11/15 06:30:17;;;;;;;62.22;33.20;;;;;;;6.21;100.00;101179.72;5092647;28;20048;-75
2021/11/15 06:32:46;;;;;;;62.78;32.30;;;;;;;6.16;100.00;101178.97;5092889;28;20040;-76
2021/11/15 06:35:15;;;;;;;58.17;31.13;;;;;;;6.21;100.00;101199.13;5092711;28;20085;-74
2021/11/15 06:37:43;;;;;;;61.25;31.25;;;;;;;6.37;100.00;101193.38;5092589;28;20415;-75
2021/11/15 06:40:15;;;;;;;58.15;31.65;;;;;;;6.49;100.00;101201.03;5090960;28;20060;-70
2021/11/15 06:42:43;;;;;;;58.38;30.77;;;;;;;6.49;100.00;101203.69;5087969;28;20362;-71
2021/11/15 06:45:14;;;;;;;56.92;31.30;;;;;;;6.53;100.00;101202.66;5090322;28;20062;-69
2021/11/15 06:47:44;;;;;;;60.80;30.83;;;;;;;6.55;100.00;101207.00;5093535;28;20044;-68
2021/11/15 06:50:16;;;;;;;61.60;30.65;;;;;;;6.64;100.00;101205.88;5097733;28;20082;-68
2021/11/15 06:52:44;;;;;;;51.78;26.90;;;;;;;6.82;100.00;101215.94;5095820;28;20052;-68
2021/11/15 06:55:14;;;;;;;59.85;30.63;;;;;;;6.67;100.00;101210.25;5095658;28;20052;-67
2021/11/15 06:57:43;;;;;;;51.13;28.33;;;;;;;6.59;100.00;101202.50;5095520;28;20417;-69
2021/11/15 07:00:18;;;;;;;57.28;29.73;;;;;;;6.59;100.00;101213.97;5095103;28;20036;-71
2021/11/15 07:02:48;;;;;;;56.85;29.80;;;;;;;6.60;100.00;101214.84;5095507;28;20044;-72
2021/11/15 07:05:17;;;;;;;58.03;28.95;;;;;;;6.66;100.00;101214.66;5094946;28;20497;-70
2021/11/15 07:07:47;;;;;;;56.05;29.48;;;;;;;6.69;100.00;101214.56;5095553;28;20389;-72
2021/11/15 07:10:16;;;;;;;53.78;28.67;;;;;;;6.78;100.00;101214.31;5095016;28;20851;-71
2021/11/15 07:12:46;;;;;;;58.17;30.35;;;;;;;6.84;100.00;101216.75;5095370;28;20036;-71
2021/11/15 07:15:16;;;;;;;54.13;29.23;;;;;;;6.94;100.00;101213.84;5094972;28;20040;-70
2021/11/15 07:17:48;;;;;;;61.78;29.83;;;;;;;7.00;100.00;101218.97;5095171;28;20071;-69
2021/11/15 07:20:16;;;;;;;59.63;31.42;;;;;;;6.88;100.00;101218.44;5095018;28;20840;-66
2021/11/15 07:22:47;;;;;;;60.25;29.75;;;;;;;6.96;100.00;101218.19;5095384;28;20067;-67
2021/11/15 07:25:16;;;;;;;57.90;29.40;;;;;;;7.05;100.00;101225.88;5094580;28;20173;-67
2021/11/15 07:27:46;;;;;;;59.20;29.25;;;;;;;7.12;100.00;101235.38;5097206;28;20040;-65
2021/11/15 07:30:16;;;;;;;58.20;29.90;;;;;;;7.12;100.00;101224.75;5095216;28;20068;-65
2021/11/15 07:32:44;;;;;;;51.95;28.88;;;;;;;7.14;100.00;101237.97;5095231;28;20044;-70
2021/11/15 07:35:13;;;;;;;56.28;30.40;;;;;;;7.12;100.00;101235.38;5094860;28;20040;-67
2021/11/15 07:37:42;;;;;;;56.17;31.40;;;;;;;7.12;100.00;101243.34;5094334;28;20044;-70
2021/11/15 07:40:12;;;;;;;59.97;30.63;;;;;;;7.15;100.00;101240.59;5094178;28;20127;-71
2021/11/15 07:42:42;;;;;;;58.28;30.95;;;;;;;7.15;100.00;101245.06;5095001;28;20165;-70
2021/11/15 07:45:11;;;;;;;55.85;28.30;;;;;;;7.19;100.00;101246.69;5094650;28;20055;-69
2021/11/15 07:47:41;;;;;;;56.15;28.83;;;;;;;7.24;100.00;101252.72;5094224;28;20556;-67
2021/11/15 07:50:12;;;;;;;56.50;30.33;;;;;;;7.29;100.00;101242.81;5094420;28;20150;-71
2021/11/15 07:52:41;;;;;;;54.58;29.33;;;;;;;7.40;100.00;101248.66;5094441;28;20044;-72
2021/11/15 07:55:13;;;;;;;54.25;28.38;;;;;;;7.50;100.00;101248.38;5094571;28;20054;-71
2021/11/15 07:57:42;;;;;;;59.13;29.65;;;;;;;7.51;100.00;101248.31;5094122;28;20124;-70
2021/11/15 08:00:13;;;;;;;56.65;28.85;;;;;;;7.65;100.00;101250.56;5094237;28;20435;-71
2021/11/15 08:02:43;;;;;;;55.25;29.45;;;;;;;7.61;100.00;101251.56;5094643;28;20473;-70
2021/11/15 08:05:14;;;;;;;57.00;30.08;;;;;;;7.59;100.00;101262.22;5094371;28;20389;-69
2021/11/15 08:07:43;;;;;;;57.00;30.60;;;;;;;7.61;100.00;101260.38;5094516;28;20044;-68
2021/11/15 08:10:13;;;;;;;58.30;29.88;;;;;;;7.68;100.00;101258.41;5092458;28;20048;-71
2021/11/15 08:12:44;;;;;;;51.35;28.98;;;;;;;7.93;100.00;101256.72;5094022;28;20036;-71
2021/11/15 08:15:14;;;;;;;58.03;29.83;;;;;;;8.02;100.00;101256.41;5094088;28;20044;-72
2021/11/15 08:17:48;;;;;;;54.35;29.95;;;;;;;8.18;100.00;101255.88;5093876;28;20093;-70
2021/11/15 08:20:17;;;;;;;51.67;28.27;;;;;;;8.30;100.00;101258.13;5094042;28;20048;-71
2021/11/15 08:22:48;;;;;;;51.95;28.83;;;;;;;8.39;100.00;101270.22;5093839;28;20097;-70
2021/11/15 08:25:51;;;;;;;52.30;28.70;;;;;;;8.36;100.00;101267.69;5093279;28;20047;-69
2021/11/15 08:28:19;;;;;;;53.70;28.88;;;;;;;8.52;100.00;101268.88;5092789;28;20040;-70
2021/11/15 08:30:48;;;;;;;50.63;27.73;;;;;;;8.71;100.00;101271.75;5093574;28;20489;-70
2021/11/15 08:33:18;;;;;;;48.45;27.35;;;;;;;8.68;100.00;101261.22;5093347;28;20048;-70
2021/11/15 08:35:48;;;;;;;48.08;27.92;;;;;;;8.68;100.00;101262.06;5093293;28;20097;-68
2021/11/15 08:38:42;;;;;;;58.67;30.23;;;;;;;8.75;100.00;101262.72;5093314;28;20047;-68
2021/11/15 08:41:11;;;;;;;51.22;28.35;;;;;;;8.98;100.00;101265.44;5085378;28;20052;-70
2021/11/15 08:43:40;;;;;;;52.63;28.60;;;;;;;8.81;100.00;101268.72;5093712;28;20416;-71
2021/11/15 08:46:15;;;;;;;51.05;28.77;;;;;;;8.94;100.00;101271.78;5093400;28;20051;-70
2021/11/15 08:48:47;;;;;;;53.85;28.40;;;;;;;8.97;100.00;101276.97;5093559;28;20372;-70
2021/11/15 08:51:17;;;;;;;49.15;27.58;;;;;;;9.15;100.00;101278.94;5093181;28;20119;-69
2021/11/15 08:53:47;;;;;;;60.95;28.35;;;;;;;9.01;100.00;101269.75;5093699;28;20401;-72
2021/11/15 08:56:15;;;;;;;50.17;28.02;;;;;;;9.12;100.00;101272.88;5093427;28;20044;-71
2021/11/15 08:58:47;;;;;;;56.13;29.13;;;;;;;9.13;100.00;101271.94;5093444;28;20074;-69
2021/11/15 09:01:17;;;;;;;48.08;28.10;;;;;;;9.20;100.00;101278.78;5093492;28;20040;-71
2021/11/15 09:03:50;;;;;;;49.95;27.73;;;;;;;9.17;100.00;101287.75;5093469;28;20044;-69
2021/11/15 09:06:19;;;;;;;53.97;29.05;;;;;;;9.23;100.00;101291.09;5093048;28;20044;-73
2021/11/15 09:08:48;;;;;;;51.13;28.65;;;;;;;9.18;100.00;101286.84;5093326;28;20040;-72
2021/11/15 09:11:18;;;;;;;53.38;28.80;;;;;;;9.20;100.00;101284.09;5091927;28;20117;-72
2021/11/15 09:13:46;;;;;;;48.75;27.77;;;;;;;9.34;100.00;101283.56;5093549;28;20043;-72
2021/11/15 09:16:15;;;;;;;50.78;29.00;;;;;;;9.33;100.00;101281.84;5092651;28;20044;-71
2021/11/15 09:18:50;;;;;;;56.33;28.73;;;;;;;9.36;100.00;101282.59;5092818;28;20067;-70
2021/11/15 09:21:19;;;;;;;49.47;29.27;;;;;;;9.40;100.00;101288.66;5092813;28;20040;-72
2021/11/15 09:23:48;;;;;;;48.70;27.55;;;;;;;9.38;100.00;101291.38;5092856;28;20044;-72
2021/11/15 09:26:24;;;;;;;51.10;28.83;;;;;;;9.42;100.00;101282.34;5092662;28;20067;-73
2021/11/15 09:28:52;;;;;;;52.72;28.45;;;;;;;9.49;100.00;101282.97;5093110;28;20396;-70
2021/11/15 09:31:20;;;;;;;55.53;28.67;;;;;;;9.51;100.00;101278.44;5092382;28;20044;-71
2021/11/15 09:33:51;;;;;;;52.22;27.90;;;;;;;9.57;100.00;101269.38;5092774;28;20048;-69
2021/11/15 09:36:23;;;;;;;53.53;29.40;;;;;;;9.60;100.00;101266.56;5092520;28;20131;-71
2021/11/15 09:38:53;;;;;;;50.28;28.42;;;;;;;9.55;100.00;101265.88;5092099;28;20109;-73
2021/11/15 09:41:21;;;;;;;52.22;29.30;;;;;;;9.64;100.00;101261.03;5091798;28;20074;-74
2021/11/15 09:43:51;;;;;;;50.75;29.92;;;;;;;9.78;100.00;101272.97;5092097;28;20478;-72
2021/11/15 09:46:22;;;;;;;51.83;28.50;;;;;;;9.81;100.00;101267.50;5091551;28;20063;-73
2021/11/15 09:48:55;;;;;;;56.78;29.58;;;;;;;9.74;100.00;101262.41;5092100;28;20040;-72
2021/11/15 09:51:24;;;;;;;59.70;30.52;;;;;;;9.74;100.00;101262.41;5091479;28;20052;-72
2021/11/15 09:53:54;;;;;;;52.72;30.65;;;;;;;9.83;100.00;101273.63;5091895;28;20381;-72
2021/11/15 09:56:23;;;;;;;56.03;30.73;;;;;;;9.90;100.00;101272.44;5091619;28;20089;-73
2021/11/15 09:58:52;;;;;;;55.22;29.73;;;;;;;9.91;100.00;101275.03;5091822;28;20485;-72
2021/11/15 10:01:20;;;;;;;55.95;31.05;;;;;;;9.96;100.00;101274.88;5091989;28;20097;-73
2021/11/15 10:03:51;;;;;;;49.47;29.75;;;;;;;10.03;100.00;101279.00;5092607;28;20077;-71
2021/11/15 10:06:21;;;;;;;55.55;30.33;;;;;;;10.24;100.00;101266.63;5092778;28;20040;-71
2021/11/15 10:08:50;;;;;;;53.45;30.08;;;;;;;10.21;100.00;101266.69;5092260;28;20093;-69
2021/11/15 10:11:21;;;;;;;51.33;29.45;;;;;;;10.21;100.00;101270.22;5092218;28;20044;-69
2021/11/15 10:13:50;;;;;;;56.53;30.80;;;;;;;10.15;100.00;101250.97;5092297;28;20082;-69
2021/11/15 10:16:21;;;;;;;53.13;30.05;;;;;;;10.30;100.00;101255.66;5092110;28;20086;-71
2021/11/15 10:18:55;;;;;;;53.05;30.27;;;;;;;10.32;100.00;101257.31;5092232;28;20051;-72
2021/11/15 10:21:28;;;;;;;53.85;29.35;;;;;;;10.40;100.00;101261.47;5092528;28;20032;-67
2021/11/15 10:23:59;;;;;;;52.45;29.70;;;;;;;10.30;100.00;101256.53;5096138;28;20401;-68
2021/11/15 10:26:31;;;;;;;51.80;30.33;;;;;;;10.27;100.00;101259.34;5095998;28;20058;-69
2021/11/15 10:29:04;;;;;;;52.72;30.10;;;;;;;10.53;100.00;101258.22;5096038;28;20119;-69
2021/11/15 10:31:45;;;;;;;53.92;30.80;;;;;;;10.49;100.00;101255.75;5096327;28;20378;-69
2021/11/15 10:34:22;;;;;;;54.08;31.63;;;;;;;10.44;100.00;101247.97;5095963;28;20477;-69
2021/11/15 10:36:57;;;;;;;55.13;30.13;;;;;;;10.55;100.00;101232.34;5096043;28;20048;-70
2021/11/15 10:39:29;;;;;;;52.97;29.90;;;;;;;10.55;100.00;101236.81;5095985;28;20040;-69
2021/11/15 10:42:08;;;;;;;55.33;29.92;;;;;;;10.62;100.00;101243.63;5095474;28;20499;-69
2021/11/15 10:44:37;;;;;;;52.78;29.75;;;;;;;10.70;100.00;101243.25;5095926;28;20127;-69
2021/11/15 10:47:06;;;;;;;54.70;30.67;;;;;;;10.77;100.00;101234.91;5095947;28;20044;-69
2021/11/15 10:49:36;;;;;;;52.80;29.55;;;;;;;10.91;100.00;101230.75;5095583;28;20504;-69
2021/11/15 10:52:08;;;;;;;56.72;30.60;;;;;;;10.89;100.00;101237.00;5095919;28;20036;-69
2021/11/15 10:54:51;;;;;;;51.17;29.63;;;;;;;10.96;100.00;101234.06;5096007;28;20048;-69
2021/11/15 10:57:22;;;;;;;54.05;30.63;;;;;;;10.87;100.00;101232.69;5095183;28;20052;-70
2021/11/15 11:00:23;;;;;;;58.17;30.48;;;;;;;10.96;100.00;101236.72;5094737;28;20059;-73
2021/11/15 11:02:54;;;;;;;58.45;30.55;;;;;;;10.85;100.00;101230.09;5095494;28;20046;-72
2021/11/15 11:05:26;;;;;;;57.00;30.00;;;;;;;10.86;100.00;101228.28;5095477;28;20540;-71
2021/11/15 11:08:11;;;;;;;54.50;32.45;;;;;;;10.80;100.00;101225.88;5095408;28;20127;-72
2021/11/15 11:10:48;;;;;;;58.08;30.77;;;;;;;10.99;100.00;101228.56;5095253;28;20028;-72
2021/11/15 11:13:21;;;;;;;54.67;30.63;;;;;;;10.89;100.00;101217.44;5093902;28;20097;-73
2021/11/15 11:15:50;;;;;;;54.95;30.83;;;;;;;11.02;100.00;101223.09;5095467;28;20536;-70
2021/11/15 11:18:21;;;;;;;54.50;31.02;;;;;;;11.09;100.00;101227.19;5094306;28;20107;-68
2021/11/15 11:27:01;;;;;;;56.15;30.48;;;;;;;10.89;100.00;101217.44;5069540;28;20064;-71
2021/11/15 11:29:34;;;;;;;50.28;30.08;;;;;;;11.06;100.00;101219.34;5094629;28;20040;-73